Murzzuschlag, Austria
Current Conditions -  °F | °C
As of 7:20 PM on Saturday 25 Oct 2014 (Local Time) from LOWG Reporting Station
Broken Clouds Broken Clouds  
Wind Chill: 41°   Ceiling: 2200
Heat Index: 45°   Visibility: 6mi
Dew Point: 41°   Wind: 6mph
Humidity: 87%   Direction: 150°SSE
Pressure: 30.27"   Gusts: NA
Location:  47.61°N, 15.67°E
Report Text: LOWG 251720Z 15005KT 9999 FEW013 BKN022 BKN040 07/05 Q1025 NOSIG
Loading
Personal Weather Stations






























Interactive Weather Map
Tropical Storm Tracking
New forecast layout! Learn more

10-Day Weather Forecast

Advertisements
Track Severe Weather on mobile